createdAt,value
2022-08-05T00:00:00.616Z,98152.19
2022-08-05T00:02:34.903Z,98151.00
2022-08-05T00:05:09.246Z,98147.66
2022-08-05T00:08:30.811Z,98149.56
2022-08-05T00:11:20.513Z,98148.16
2022-08-05T00:14:12.062Z,98135.94
2022-08-05T00:24:10.327Z,98145.13
2022-08-05T00:26:52.852Z,98137.38
2022-08-05T00:29:32.907Z,98130.47
2022-08-05T00:32:18.920Z,98131.16
2022-08-05T00:35:04.465Z,98123.03
2022-08-05T00:37:52.400Z,98122.69
2022-08-05T00:51:08.749Z,98114.78
2022-08-05T00:54:02.248Z,98113.34
2022-08-05T00:56:51.485Z,98107.25
2022-08-05T00:59:25.397Z,98116.78
2022-08-05T01:02:14.911Z,98118.91
2022-08-05T01:19:01.866Z,98122.69
2022-08-05T01:22:23.901Z,98124.22
2022-08-05T01:25:40.106Z,98114.19
2022-08-05T01:28:48.942Z,98111.91
2022-08-05T01:31:32.059Z,98121.44
2022-08-05T01:44:11.221Z,98120.16
2022-08-05T01:46:55.260Z,98120.63
2022-08-05T01:50:00.344Z,98118.34
2022-08-05T01:52:35.904Z,98118.59
2022-08-05T01:55:15.901Z,98117.16
2022-08-05T01:58:09.706Z,98107.72
2022-08-05T02:11:33.339Z,98093.13
2022-08-05T02:14:14.198Z,98089.13
2022-08-05T02:16:59.895Z,98086.25
2022-08-05T02:19:47.055Z,98090.31
2022-08-05T02:22:35.878Z,98082.31
2022-08-05T02:39:16.913Z,98082.06
2022-08-05T02:42:03.917Z,98069.44
2022-08-05T02:44:41.004Z,98061.44
2022-08-05T02:47:25.692Z,98059.56
2022-08-05T02:50:23.033Z,98058.31
2022-08-05T02:53:05.929Z,98053.69
2022-08-05T03:06:55.504Z,98046.00
2022-08-05T03:09:36.332Z,98051.13
2022-08-05T03:12:36.895Z,98036.78
2022-08-05T03:15:12.454Z,98039.41
2022-08-05T03:17:45.895Z,98034.34
2022-08-05T03:31:11.943Z,98033.69
2022-08-05T03:34:05.944Z,98042.97
2022-08-05T03:36:39.904Z,98041.50
2022-08-05T03:39:33.100Z,98046.41
2022-08-05T03:42:29.088Z,98035.88
2022-08-05T03:59:15.875Z,98046.13
2022-08-05T04:02:04.992Z,98041.94
2022-08-05T04:04:42.116Z,98044.44
2022-08-05T04:07:25.246Z,98051.81
2022-08-05T04:10:03.007Z,98050.34
2022-08-05T04:26:00.467Z,98044.78
2022-08-05T04:28:34.802Z,98042.50
2022-08-05T04:31:10.647Z,98051.56
2022-08-05T04:34:17.064Z,98049.25
2022-08-05T04:36:50.123Z,98058.31
2022-08-05T04:53:27.902Z,98043.41
2022-08-05T04:56:34.407Z,98048.66
2022-08-05T04:59:21.722Z,98043.41
2022-08-05T05:02:41.554Z,98056.47
2022-08-05T05:05:03.027Z,98061.97
2022-08-05T05:07:37.995Z,98061.97
2022-08-05T05:19:59.925Z,98079.53
2022-08-05T05:22:33.441Z,98078.28
2022-08-05T05:25:17.009Z,98068.81
2022-08-05T05:27:55.712Z,98086.19
2022-08-05T05:30:36.900Z,98090.16
2022-08-05T05:33:16.939Z,98087.56
2022-08-05T05:46:15.972Z,98071.75
2022-08-05T05:48:57.922Z,98067.22
2022-08-05T05:51:49.966Z,98070.16
2022-08-05T05:54:49.960Z,98071.34
2022-08-05T05:57:24.709Z,98081.41
2022-08-05T06:14:02.105Z,98082.16
2022-08-05T06:16:37.257Z,98086.69
2022-08-05T06:19:12.536Z,98082.78
2022-08-05T06:21:59.441Z,98087.09
2022-08-05T06:24:33.901Z,98088.91
2022-08-05T06:27:17.071Z,98092.44
2022-08-05T06:40:27.846Z,98075.09
2022-08-05T06:43:58.763Z,98076.19
2022-08-05T06:46:07.213Z,98075.41
2022-08-05T06:48:53.791Z,98076.69
2022-08-05T06:51:31.287Z,98075.28
2022-08-05T06:54:05.961Z,98072.16
2022-08-05T07:07:24.203Z,98089.47
2022-08-05T07:10:14.897Z,98087.41
2022-08-05T07:12:56.923Z,98085.59
2022-08-05T07:16:00.371Z,98083.78
2022-08-05T07:18:32.357Z,98081.16
2022-08-05T07:31:55.453Z,98090.91
2022-08-05T07:34:29.799Z,98097.59
2022-08-05T07:37:03.961Z,98090.75
2022-08-05T07:40:04.478Z,98090.50
2022-08-05T07:42:37.983Z,98094.09
2022-08-05T07:45:12.504Z,98097.94
2022-08-05T07:47:48.934Z,98099.25
2022-08-05T07:58:54.850Z,98109.56
2022-08-05T08:01:30.479Z,98113.41
2022-08-05T08:04:06.449Z,98109.81
2022-08-05T08:06:48.018Z,98116.16
2022-08-05T08:09:25.504Z,98113.41
2022-08-05T08:12:30.586Z,98121.91
2022-08-05T08:26:00.164Z,98128.81
2022-08-05T08:28:37.139Z,98134.06
2022-08-05T08:31:22.925Z,98131.09
2022-08-05T08:34:00.546Z,98129.44
2022-08-05T08:36:47.584Z,98122.94
2022-08-05T08:39:26.643Z,98127.47
2022-08-05T08:52:59.901Z,98121.84
2022-08-05T08:56:04.215Z,98127.44
2022-08-05T08:58:37.644Z,98123.97
2022-08-05T09:01:25.983Z,98125.41
2022-08-05T09:04:00.820Z,98119.75
2022-08-05T09:06:39.341Z,98132.16
2022-08-05T09:09:17.511Z,98143.31
2022-08-05T09:18:52.940Z,98146.81
2022-08-05T09:22:22.972Z,98155.16
2022-08-05T09:24:31.961Z,98161.84
2022-08-05T09:27:09.454Z,98160.50
2022-08-05T09:29:50.961Z,98163.00
2022-08-05T09:32:41.354Z,98172.94
2022-08-05T09:46:07.397Z,98174.13
2022-08-05T09:48:55.417Z,98172.53
2022-08-05T09:51:42.480Z,98169.88
2022-08-05T09:54:15.961Z,98174.91
2022-08-05T09:56:55.459Z,98176.66
2022-08-05T10:12:33.885Z,98166.00
2022-08-05T10:15:20.992Z,98163.34
2022-08-05T10:18:17.979Z,98158.47
2022-08-05T10:20:58.261Z,98156.66
2022-08-05T10:23:59.192Z,98149.31
2022-08-05T10:26:35.360Z,98148.63
2022-08-05T10:29:10.981Z,98152.25
2022-08-05T10:39:25.007Z,98154.19
2022-08-05T10:42:33.761Z,98150.50
2022-08-05T10:45:23.622Z,98158.31
2022-08-05T10:48:56.725Z,98162.28
2022-08-05T10:51:53.233Z,98160.75
2022-08-05T11:08:36.874Z,98151.56
2022-08-05T11:11:44.906Z,98143.59
2022-08-05T11:17:58.705Z,98150.97
2022-08-05T11:34:22.551Z,98145.19
2022-08-05T11:37:00.942Z,98141.34
2022-08-05T11:40:03.009Z,98149.41
2022-08-05T11:42:45.962Z,98148.28
2022-08-05T11:46:15.689Z,98156.34
2022-08-05T11:48:19.559Z,98143.63
2022-08-05T12:01:10.940Z,98150.66
2022-08-05T12:03:55.767Z,98143.53
2022-08-05T12:06:35.981Z,98153.53
2022-08-05T12:09:19.808Z,98151.28
2022-08-05T12:11:54.822Z,98149.38
2022-08-05T12:14:28.980Z,98146.91
2022-08-05T12:28:07.962Z,98147.50
2022-08-05T12:30:50.004Z,98151.97
2022-08-05T12:33:27.427Z,98155.03
2022-08-05T12:36:11.553Z,98151.69
2022-08-05T12:38:47.001Z,98146.44
2022-08-05T12:55:32.675Z,98151.72
2022-08-05T12:58:49.830Z,98156.72
2022-08-05T13:02:04.064Z,98150.59
2022-08-05T13:04:24.117Z,98149.22
2022-08-05T13:07:01.580Z,98158.63
2022-08-05T13:20:11.961Z,98146.19
2022-08-05T13:25:58.935Z,98146.50
2022-08-05T13:28:26.994Z,98145.66
2022-08-05T13:31:10.957Z,98129.56
2022-08-05T13:34:24.190Z,98136.75
2022-08-05T13:47:36.100Z,98143.94
2022-08-05T13:50:22.660Z,98146.16
2022-08-05T13:52:58.001Z,98145.06
2022-08-05T13:55:40.723Z,98137.56
2022-08-05T14:00:53.721Z,98132.81
2022-08-05T14:03:23.522Z,98127.53
2022-08-05T14:13:09.020Z,98128.03
2022-08-05T14:16:07.450Z,98126.06
2022-08-05T14:18:44.980Z,98123.88
2022-08-05T14:22:07.344Z,98125.50
2022-08-05T14:24:21.659Z,98124.94
2022-08-05T14:27:15.556Z,98120.53
2022-08-05T14:40:17.024Z,98132.03
2022-08-05T14:42:57.981Z,98134.53
2022-08-05T14:45:32.741Z,98132.91
2022-08-05T14:48:08.826Z,98133.44
2022-08-05T14:50:42.500Z,98145.09
2022-08-05T14:53:16.005Z,98130.91
2022-08-05T15:06:49.450Z,98126.78
2022-08-05T15:09:52.826Z,98124.56
2022-08-05T15:12:23.964Z,98123.19
2022-08-05T15:15:01.520Z,98113.75
2022-08-05T15:17:47.096Z,98116.81
2022-08-05T15:20:25.940Z,98117.38
2022-08-05T15:23:03.020Z,98121.81
2022-08-05T15:34:05.813Z,98119.00
2022-08-05T15:36:25.710Z,98120.13
2022-08-05T15:40:58.831Z,98127.03
2022-08-05T15:42:02.088Z,98121.25
2022-08-05T15:44:55.440Z,98118.72
2022-08-05T15:47:29.009Z,98118.78
2022-08-05T16:00:16.791Z,98102.66
2022-08-05T16:02:59.847Z,98111.81
2022-08-05T16:05:34.009Z,98104.28
2022-08-05T16:08:08.562Z,98110.09
2022-08-05T16:10:42.011Z,98115.66
2022-08-05T16:13:23.730Z,98111.78
2022-08-05T16:27:00.506Z,98121.22
2022-08-05T16:29:44.153Z,98121.75
2022-08-05T16:32:23.654Z,98117.34
2022-08-05T16:35:11.380Z,98118.72
2022-08-05T16:38:15.462Z,98131.22
2022-08-05T16:40:55.474Z,98132.88
2022-08-05T16:43:35.402Z,98140.66
2022-08-05T16:54:05.991Z,98145.91
2022-08-05T16:56:36.249Z,98140.91
2022-08-05T16:59:14.671Z,98138.44
2022-08-05T17:01:53.217Z,98142.03
2022-08-05T17:04:36.005Z,98137.03
2022-08-05T17:07:14.414Z,98142.34
2022-08-05T17:20:32.021Z,98156.16
2022-08-05T17:24:02.976Z,98157.03
2022-08-05T17:26:05.940Z,98164.44
2022-08-05T17:28:40.123Z,98167.75
2022-08-05T17:31:24.537Z,98169.84
2022-08-05T17:34:18.048Z,98177.22
2022-08-05T17:47:31.040Z,98196.06
2022-08-05T17:50:10.644Z,98207.75
2022-08-05T17:52:53.196Z,98211.59
2022-08-05T17:55:37.499Z,98216.22
2022-08-05T17:58:21.580Z,98234.66
2022-08-05T18:01:08.217Z,98238.41
2022-08-05T18:04:04.559Z,98251.28
2022-08-05T18:13:55.988Z,98269.00
2022-08-05T18:16:43.727Z,98279.66
2022-08-05T18:19:27.472Z,98285.34
2022-08-05T18:22:07.792Z,98291.59
2022-08-05T18:24:43.743Z,98293.41
2022-08-05T18:27:18.790Z,98291.34
2022-08-05T18:41:53.513Z,98312.44
2022-08-05T18:43:42.644Z,98313.19
2022-08-05T18:46:31.480Z,98319.50
2022-08-05T18:49:05.569Z,98337.63
2022-08-05T18:52:05.875Z,98334.25
2022-08-05T18:54:33.560Z,98345.16
2022-08-05T19:07:29.686Z,98359.06
2022-08-05T19:10:28.508Z,98352.38
2022-08-05T19:13:04.559Z,98360.56
2022-08-05T19:16:00.189Z,98368.75
2022-08-05T19:18:37.560Z,98371.38
2022-08-05T19:24:05.771Z,98382.81
2022-08-05T19:34:12.001Z,98391.41
2022-08-05T19:36:52.768Z,98407.81
2022-08-05T19:39:28.339Z,98422.13
2022-08-05T19:42:07.203Z,98445.97
2022-08-05T19:44:48.062Z,98452.00
2022-08-05T19:47:22.701Z,98453.31
2022-08-05T20:00:56.069Z,98482.44
2022-08-05T20:03:38.041Z,98495.28
2022-08-05T20:06:15.586Z,98490.47
2022-08-05T20:08:50.089Z,98493.84
2022-08-05T20:11:23.562Z,98493.38
2022-08-05T20:14:11.984Z,98494.31
2022-08-05T20:27:42.286Z,98504.44
2022-08-05T20:30:19.662Z,98513.00
2022-08-05T20:33:06.021Z,98509.22
2022-08-05T20:35:40.544Z,98513.53
2022-08-05T20:38:27.325Z,98507.66
2022-08-05T20:41:04.602Z,98521.63
2022-08-05T20:43:58.744Z,98522.09
2022-08-05T20:54:42.847Z,98524.19
2022-08-05T20:57:43.618Z,98536.72
2022-08-05T21:00:49.895Z,98541.00
2022-08-05T21:03:21.040Z,98548.25
2022-08-05T21:05:55.673Z,98555.78
2022-08-05T21:08:42.479Z,98560.00
2022-08-05T21:21:56.061Z,98592.59
2022-08-05T21:24:29.622Z,98590.53
2022-08-05T21:27:04.027Z,98600.28
2022-08-05T21:29:40.937Z,98605.00
2022-08-05T21:32:26.716Z,98605.69
2022-08-05T21:49:08.066Z,98631.28
2022-08-05T21:52:21.904Z,98631.72
2022-08-05T21:54:45.482Z,98637.91
2022-08-05T21:57:33.066Z,98636.06
2022-08-05T22:00:11.389Z,98631.69
2022-08-05T22:02:57.051Z,98633.19
2022-08-05T22:16:20.679Z,98658.88
2022-08-05T22:19:02.735Z,98663.13
2022-08-05T22:21:56.126Z,98671.56
2022-08-05T22:24:39.553Z,98678.75
2022-08-05T22:27:21.061Z,98685.50
2022-08-05T22:43:49.401Z,98694.03
2022-08-05T22:46:32.043Z,98695.47
2022-08-05T22:49:07.701Z,98702.03
2022-08-05T22:52:04.775Z,98707.94
2022-08-05T22:54:40.603Z,98714.69
2022-08-05T23:08:17.002Z,98710.88
2022-08-05T23:10:57.069Z,98720.97
2022-08-05T23:13:31.661Z,98718.66
2022-08-05T23:16:15.124Z,98722.66
2022-08-05T23:19:08.522Z,98730.00
2022-08-05T23:21:48.183Z,98753.56
2022-08-05T23:24:24.660Z,98764.63
2022-08-05T23:37:13.021Z,98800.66
2022-08-05T23:39:56.112Z,98811.78
2022-08-05T23:42:29.934Z,98813.19
2022-08-05T23:45:04.064Z,98811.66
2022-08-05T23:47:48.826Z,98804.22
